Time;durP1;ratioP1;P1;durP2;ratioP2;P2;SDS_P1;SDS_P2;PMS_P1;PMS_P2;Temp;Humidity;BMP_temperature;BMP_pressure;BME280_temperature;BME280_humidity;BME280_pressure;Samples;Min_cycle;Max_cycle;Signal;HPM_P1;HPM_P2
2021/01/13 00:01:08;;;;;;;10.52;1.48;;;1.90;99.90;;;;;;12369401;28;20062;-84
2021/01/13 00:07:12;;;;;;;14.75;1.85;;;1.90;99.90;;;;;;12386526;28;20510;-82
2021/01/13 00:13:13;;;;;;;7.45;1.50;;;1.70;99.90;;;;;;12372436;28;20133;-82
2021/01/13 00:19:15;;;;;;;14.57;1.92;;;1.80;99.90;;;;;;12390567;28;20081;-82
2021/01/13 00:25:16;;;;;;;11.05;1.45;;;1.70;99.90;;;;;;12387862;28;20045;-82
2021/01/13 00:31:19;;;;;;;5.50;1.23;;;1.80;99.90;;;;;;12377180;28;20569;-84
2021/01/13 00:37:20;;;;;;;14.77;1.60;;;1.80;99.90;;;;;;12365212;28;20042;-82
2021/01/13 00:43:22;;;;;;;14.63;2.65;;;1.80;99.90;;;;;;12395401;28;20042;-83
2021/01/13 00:49:23;;;;;;;12.27;1.65;;;1.80;99.90;;;;;;12392211;28;20096;-83
2021/01/13 00:55:25;;;;;;;13.25;1.90;;;1.90;99.90;;;;;;12367687;28;20408;-81
2021/01/13 01:01:27;;;;;;;9.75;1.88;;;1.80;99.90;;;;;;12374057;28;20046;-82
2021/01/13 01:07:29;;;;;;;11.95;1.70;;;1.80;99.90;;;;;;12374678;28;20073;-81
2021/01/13 01:13:30;;;;;;;13.98;1.88;;;1.80;99.90;;;;;;12383021;28;20088;-81
2021/01/13 01:19:32;;;;;;;9.18;1.50;;;1.60;99.90;;;;;;12387488;28;20133;-81
2021/01/13 01:25:33;;;;;;;12.30;1.80;;;1.50;99.90;;;;;;12394691;28;20209;-81
2021/01/13 01:31:34;;;;;;;9.95;2.08;;;1.40;99.90;;;;;;12364579;28;20085;-81
2021/01/13 01:37:36;;;;;;;11.10;1.80;;;1.40;99.90;;;;;;12377611;28;20057;-81
2021/01/13 01:43:43;;;;;;;11.23;2.28;;;1.50;99.90;;;;;;12363755;28;20141;-81
2021/01/13 01:49:45;;;;;;;13.13;1.92;;;1.50;99.90;;;;;;12350865;28;20162;-81
2021/01/13 01:56:16;;;;;;;13.20;2.67;;;1.60;99.90;;;;;;12377443;28;20395;-82
2021/01/13 02:02:21;;;;;;;11.73;2.45;;;1.50;99.90;;;;;;12380108;28;20414;-81
2021/01/13 02:08:23;;;;;;;15.95;1.95;;;1.30;99.90;;;;;;12387667;28;20109;-81
2021/01/13 02:14:25;;;;;;;15.45;2.38;;;1.20;99.90;;;;;;12375039;28;20136;-81
2021/01/13 02:20:30;;;;;;;10.73;1.80;;;1.30;99.90;;;;;;12372020;28;20043;-82
2021/01/13 02:27:05;;;;;;;10.48;2.13;;;1.30;99.90;;;;;;12382426;28;21360;-81
2021/01/13 02:33:15;;;;;;;16.50;2.05;;;1.40;99.90;;;;;;12366627;28;20137;-81
2021/01/13 02:39:18;;;;;;;11.88;1.65;;;1.40;99.90;;;;;;12343945;28;22041;-81
2021/01/13 02:45:23;;;;;;;13.95;1.95;;;1.60;99.90;;;;;;12345677;28;20054;-81
2021/01/13 02:51:30;;;;;;;17.47;4.07;;;1.80;99.90;;;;;;12304085;28;20050;-81
2021/01/13 02:57:37;;;;;;;10.70;2.63;;;1.70;99.90;;;;;;12261256;28;20051;-83
2021/01/13 03:03:38;;;;;;;11.68;1.80;;;1.70;99.90;;;;;;12264777;28;20055;-82
2021/01/13 03:09:48;;;;;;;14.50;3.03;;;1.70;99.90;;;;;;12281028;28;20054;-81
2021/01/13 03:15:50;;;;;;;13.70;2.90;;;1.70;99.90;;;;;;12270920;28;20093;-82
2021/01/13 03:22:00;;;;;;;11.43;1.70;;;1.70;99.90;;;;;;12276585;28;20157;-81
2021/01/13 03:28:05;;;;;;;8.52;1.45;;;1.60;99.90;;;;;;12289061;28;20675;-81
2021/01/13 03:34:29;;;;;;;13.88;2.13;;;1.70;99.90;;;;;;12276116;28;20783;-81
2021/01/13 03:40:32;;;;;;;9.57;1.60;;;1.70;99.90;;;;;;12304802;28;20102;-82
2021/01/13 03:46:33;;;;;;;11.40;1.45;;;1.70;99.90;;;;;;12285805;28;20884;-82
2021/01/13 03:52:55;;;;;;;8.48;1.58;;;1.80;99.90;;;;;;12285645;28;20104;-81
2021/01/13 03:59:05;;;;;;;11.02;1.48;;;1.70;99.90;;;;;;12289586;28;20153;-82
2021/01/13 04:05:12;;;;;;;7.38;1.90;;;1.80;99.90;;;;;;12277431;28;20484;-81
2021/01/13 04:11:19;;;;;;;13.93;2.78;;;1.80;99.90;;;;;;12286252;28;20059;-83
2021/01/13 04:17:23;;;;;;;14.10;1.92;;;1.90;99.90;;;;;;12283582;28;20087;-82
2021/01/13 04:23:24;;;;;;;10.55;1.58;;;1.90;99.90;;;;;;12282659;28;21804;-80
2021/01/13 04:29:26;;;;;;;10.70;1.60;;;1.90;99.90;;;;;;12282811;28;20492;-83
2021/01/13 04:35:28;;;;;;;8.65;1.50;;;2.00;99.90;;;;;;12279098;28;20039;-81
2021/01/13 04:41:29;;;;;;;12.27;1.52;;;2.00;99.90;;;;;;12287660;28;20118;-81
2021/01/13 04:47:51;;;;;;;6.38;1.45;;;1.90;99.90;;;;;;12306413;28;20395;-82
2021/01/13 04:53:55;;;;;;;8.25;1.38;;;2.00;99.90;;;;;;12290872;28;20467;-82
2021/01/13 05:00:13;;;;;;;7.80;1.57;;;2.00;99.90;;;;;;12285170;28;20138;-82
2021/01/13 05:06:32;;;;;;;13.07;1.65;;;2.00;99.90;;;;;;12303856;28;20411;-82
2021/01/13 05:12:56;;;;;;;12.88;1.77;;;1.90;99.90;;;;;;12316191;28;20141;-82
2021/01/13 05:19:02;;;;;;;15.73;2.08;;;1.90;99.90;;;;;;12323410;28;20083;-82
2021/01/13 05:25:07;;;;;;;16.75;2.03;;;1.90;99.90;;;;;;12375502;28;20108;-83
2021/01/13 05:31:18;;;;;;;9.63;1.90;;;1.90;99.90;;;;;;12362158;28;20108;-81
2021/01/13 05:37:48;;;;;;;11.00;1.92;;;2.00;99.90;;;;;;12348269;28;20042;-83
2021/01/13 05:43:50;;;;;;;10.98;1.77;;;1.90;99.90;;;;;;12327989;28;20050;-82
2021/01/13 05:49:54;;;;;;;5.85;1.90;;;1.80;99.90;;;;;;12319621;28;20059;-83
2021/01/13 05:55:55;;;;;;;18.40;2.77;;;1.90;99.90;;;;;;12343283;28;20541;-82
2021/01/13 06:01:59;;;;;;;12.52;2.10;;;1.90;99.90;;;;;;12333894;28;20051;-83
2021/01/13 06:08:02;;;;;;;11.32;2.40;;;1.90;99.90;;;;;;12313380;28;20502;-83
2021/01/13 06:14:04;;;;;;;11.52;2.60;;;1.80;99.90;;;;;;12300573;28;20090;-82
2021/01/13 06:20:08;;;;;;;12.30;2.83;;;1.90;99.90;;;;;;12305184;28;20106;-82
2021/01/13 06:26:09;;;;;;;7.00;2.50;;;1.90;99.90;;;;;;12294087;28;20082;-83
2021/01/13 06:32:36;;;;;;;8.93;2.55;;;1.90;99.90;;;;;;12300710;28;20116;-82
2021/01/13 06:38:53;;;;;;;11.80;3.15;;;1.90;99.90;;;;;;12296700;28;20167;-83
2021/01/13 06:44:54;;;;;;;10.27;3.38;;;1.90;99.90;;;;;;12295682;28;20050;-83
2021/01/13 06:51:00;;;;;;;13.25;3.38;;;2.00;99.90;;;;;;12307065;28;20058;-82
2021/01/13 06:57:01;;;;;;;15.93;4.13;;;2.00;99.90;;;;;;12295959;28;20151;-83
2021/01/13 07:03:31;;;;;;;12.95;3.03;;;2.00;99.90;;;;;;12287419;28;20043;-82
2021/01/13 07:09:43;;;;;;;10.23;2.72;;;2.00;99.90;;;;;;12294485;28;20483;-83
2021/01/13 07:15:45;;;;;;;12.50;2.80;;;1.90;99.90;;;;;;12279149;28;20146;-82
2021/01/13 07:21:47;;;;;;;11.60;3.08;;;2.00;99.90;;;;;;12280307;28;20050;-82
2021/01/13 07:27:50;;;;;;;8.35;2.58;;;2.10;99.90;;;;;;12294065;28;20150;-81
2021/01/13 07:33:59;;;;;;;13.32;3.00;;;2.10;99.90;;;;;;12279888;28;21014;-83
2021/01/13 07:40:18;;;;;;;6.45;2.78;;;2.10;99.90;;;;;;12293563;28;20157;-83
2021/01/13 07:46:30;;;;;;;8.40;2.28;;;2.10;99.90;;;;;;12334060;28;20058;-83
2021/01/13 07:52:37;;;;;;;10.48;2.45;;;2.20;99.90;;;;;;12324344;28;20105;-82
2021/01/13 07:59:05;;;;;;;8.48;3.17;;;2.20;99.90;;;;;;12316111;28;20147;-83
2021/01/13 08:05:28;;;;;;;7.18;1.70;;;2.30;99.90;;;;;;12325199;28;20614;-83
2021/01/13 08:12:13;;;;;;;9.15;2.45;;;2.30;99.90;;;;;;12318244;28;20043;-83
2021/01/13 08:18:57;;;;;;;6.18;2.55;;;2.20;99.90;;;;;;12289982;28;20054;-82
2021/01/13 08:25:08;;;;;;;6.90;2.63;;;2.20;99.90;;;;;;12304171;28;20054;-83
2021/01/13 08:31:11;;;;;;;6.88;2.97;;;2.10;99.90;;;;;;12285054;28;20163;-84
2021/01/13 08:37:13;;;;;;;8.57;3.00;;;2.20;99.90;;;;;;12291884;28;20051;-82
2021/01/13 08:43:17;;;;;;;8.15;2.88;;;2.20;99.90;;;;;;12280741;28;20496;-84
2021/01/13 08:49:24;;;;;;;9.90;3.83;;;2.30;99.90;;;;;;12297561;28;20555;-83
2021/01/13 08:55:26;;;;;;;10.38;3.63;;;2.40;99.90;;;;;;12278020;28;20138;-84
2021/01/13 09:01:37;;;;;;;6.95;3.35;;;2.40;99.90;;;;;;12279837;28;20099;-85
2021/01/13 09:07:45;;;;;;;12.38;4.03;;;2.30;99.90;;;;;;12284796;28;20054;-83
2021/01/13 09:13:46;;;;;;;9.90;3.90;;;2.40;99.90;;;;;;12283975;28;20077;-83
2021/01/13 09:19:48;;;;;;;11.07;3.67;;;2.50;99.90;;;;;;12282150;28;20046;-85
2021/01/13 09:25:56;;;;;;;12.77;3.53;;;2.50;99.90;;;;;;12306642;28;20526;-83
2021/01/13 09:32:15;;;;;;;8.60;3.15;;;2.40;99.90;;;;;;12280842;28;20070;-84
2021/01/13 09:38:30;;;;;;;12.75;4.18;;;2.30;99.90;;;;;;12290503;28;20054;-83
2021/01/13 09:44:33;;;;;;;11.98;3.75;;;2.30;99.90;;;;;;12285933;28;20051;-84
2021/01/13 09:50:34;;;;;;;10.80;4.32;;;2.40;99.90;;;;;;12275149;28;20109;-82
2021/01/13 09:56:37;;;;;;;15.82;3.67;;;2.50;99.90;;;;;;12308443;28;20058;-84
2021/01/13 10:02:40;;;;;;;13.23;3.88;;;2.60;99.90;;;;;;12276653;28;20407;-83
2021/01/13 10:08:42;;;;;;;8.93;3.35;;;2.70;99.90;;;;;;12284574;28;20047;-82
2021/01/13 10:14:52;;;;;;;9.90;3.20;;;2.60;99.90;;;;;;12291604;28;20364;-83
2021/01/13 10:20:58;;;;;;;8.70;2.90;;;2.70;99.90;;;;;;12292338;28;20134;-85
2021/01/13 10:27:00;;;;;;;19.88;3.22;;;2.80;99.90;;;;;;12287054;28;20058;-83
2021/01/13 10:33:01;;;;;;;14.35;3.30;;;2.90;99.90;;;;;;12279761;28;20051;-83
2021/01/13 10:39:09;;;;;;;14.27;2.85;;;3.00;99.90;;;;;;12285096;28;20074;-84
2021/01/13 10:45:16;;;;;;;9.45;2.20;;;3.00;99.90;;;;;;12290325;28;20066;-81
2021/01/13 10:51:23;;;;;;;13.95;2.60;;;3.20;99.90;;;;;;12283537;28;20046;-84
2021/01/13 10:57:32;;;;;;;15.27;2.72;;;3.20;99.90;;;;;;12293704;28;20047;-84
2021/01/13 11:03:33;;;;;;;14.02;3.00;;;3.20;99.90;;;;;;12302855;28;20039;-82
2021/01/13 11:09:39;;;;;;;9.63;2.70;;;3.30;99.90;;;;;;12293962;28;20062;-84
2021/01/13 11:15:40;;;;;;;16.25;3.13;;;3.30;99.90;;;;;;12287280;28;20117;-82
2021/01/13 11:21:42;;;;;;;26.92;4.38;;;3.40;99.90;;;;;;12290789;28;20134;-83
2021/01/13 11:27:45;;;;;;;11.05;2.53;;;3.40;99.90;;;;;;12290978;28;20098;-84
2021/01/13 11:33:46;;;;;;;9.77;2.45;;;3.50;99.90;;;;;;12307921;28;20082;-82
2021/01/13 11:40:25;;;;;;;11.18;2.20;;;3.40;99.90;;;;;;12292961;28;20055;-83
2021/01/13 11:46:30;;;;;;;11.07;2.45;;;3.50;99.90;;;;;;12320786;28;20196;-83
2021/01/13 11:52:33;;;;;;;9.25;1.98;;;3.50;99.90;;;;;;12311602;28;20097;-83
2021/01/13 11:58:35;;;;;;;12.95;2.70;;;3.50;99.90;;;;;;12326222;28;20065;-84
2021/01/13 12:04:43;;;;;;;17.13;2.50;;;3.50;99.90;;;;;;12281320;28;20079;-82
2021/01/13 12:10:50;;;;;;;8.60;2.47;;;3.50;99.90;;;;;;12315861;28;20133;-84
2021/01/13 12:17:01;;;;;;;11.82;2.03;;;3.50;99.90;;;;;;12389462;28;20109;-83
2021/01/13 12:23:20;;;;;;;14.25;2.53;;;3.40;99.90;;;;;;12376633;28;20586;-82
2021/01/13 12:29:21;;;;;;;10.02;2.47;;;3.50;99.90;;;;;;12376496;28;20516;-82
2021/01/13 12:35:27;;;;;;;9.45;2.00;;;3.40;99.90;;;;;;12366592;28;20049;-83
2021/01/13 12:41:34;;;;;;;11.05;2.70;;;3.40;99.90;;;;;;12374218;28;20070;-84
2021/01/13 12:47:35;;;;;;;15.07;4.00;;;3.30;99.90;;;;;;12363440;28;20418;-84
2021/01/13 12:53:37;;;;;;;12.05;2.10;;;3.30;99.90;;;;;;12361907;28;20081;-82
2021/01/13 12:59:39;;;;;;;7.22;2.28;;;3.30;99.90;;;;;;12378043;28;20497;-82
2021/01/13 13:20:33;;;;;;;17.63;2.53;;;3.60;99.90;;;;;;12356799;28;20057;-83
2021/01/13 13:26:34;;;;;;;11.43;2.33;;;3.40;99.90;;;;;;12334234;28;20046;-82
2021/01/13 13:32:36;;;;;;;11.30;2.60;;;3.50;99.90;;;;;;12343290;28;20137;-82
2021/01/13 13:38:38;;;;;;;8.32;2.50;;;3.50;99.90;;;;;;12361131;28;20534;-83
2021/01/13 13:44:39;;;;;;;15.65;3.30;;;3.60;99.90;;;;;;12356244;28;20375;-82
2021/01/13 13:50:41;;;;;;;16.58;2.47;;;3.60;99.90;;;;;;12349158;28;20543;-84
2021/01/13 13:56:42;;;;;;;9.32;2.55;;;3.50;99.90;;;;;;12366949;28;20567;-83
2021/01/13 14:02:45;;;;;;;10.18;2.20;;;3.50;99.90;;;;;;12363272;28;20540;-83
2021/01/13 14:08:46;;;;;;;9.38;2.40;;;3.60;99.90;;;;;;12358088;28;20047;-84
2021/01/13 14:14:47;;;;;;;11.60;3.25;;;3.60;99.90;;;;;;12390817;28;20045;-84
2021/01/13 14:20:48;;;;;;;9.93;2.40;;;3.60;99.90;;;;;;12364339;28;20045;-82
2021/01/13 14:26:55;;;;;;;10.10;2.03;;;3.70;99.90;;;;;;12390686;28;20046;-83
2021/01/13 14:32:57;;;;;;;8.88;2.40;;;3.70;99.90;;;;;;12370995;28;20513;-84
2021/01/13 14:38:59;;;;;;;10.02;2.88;;;3.70;99.90;;;;;;12370512;28;20054;-85
2021/01/13 14:45:00;;;;;;;12.15;2.53;;;3.70;99.90;;;;;;12343042;28;20406;-83
2021/01/13 14:51:02;;;;;;;6.85;2.05;;;3.70;99.90;;;;;;12338614;28;20061;-85
2021/01/13 14:57:07;;;;;;;9.02;2.20;;;3.50;99.90;;;;;;12360342;28;20096;-82
2021/01/13 15:03:10;;;;;;;9.63;2.03;;;3.60;99.90;;;;;;12320212;28;20092;-82
2021/01/13 15:09:11;;;;;;;10.18;2.42;;;3.60;99.90;;;;;;12341308;28;20062;-86
2021/01/13 15:15:13;;;;;;;13.65;3.28;;;3.60;99.90;;;;;;12331671;28;20050;-83
2021/01/13 15:21:21;;;;;;;11.00;3.20;;;3.50;99.90;;;;;;12341605;28;20676;-85
2021/01/13 15:27:23;;;;;;;12.75;3.65;;;3.50;99.90;;;;;;12363916;28;20143;-82
2021/01/13 15:33:24;;;;;;;8.35;2.92;;;3.60;99.90;;;;;;12335392;28;20047;-83
2021/01/13 15:39:26;;;;;;;11.60;3.08;;;3.60;99.90;;;;;;12354947;28;20117;-81
2021/01/13 15:45:27;;;;;;;12.63;3.10;;;3.60;99.90;;;;;;12346212;28;20058;-82
2021/01/13 15:51:42;;;;;;;10.30;2.40;;;3.60;99.90;;;;;;12329129;28;20053;-83
2021/01/13 15:57:51;;;;;;;8.50;2.03;;;3.60;99.90;;;;;;12335688;28;20092;-83
2021/01/13 16:03:53;;;;;;;7.32;2.22;;;3.60;99.90;;;;;;12347559;28;20154;-83
2021/01/13 16:09:55;;;;;;;9.70;2.25;;;3.50;99.90;;;;;;12354807;28;20434;-84
2021/01/13 16:15:58;;;;;;;8.18;2.55;;;3.50;99.90;;;;;;12322965;28;20074;-85
2021/01/13 16:22:03;;;;;;;8.02;2.20;;;3.50;99.90;;;;;;12335289;28;20042;-83
2021/01/13 16:28:05;;;;;;;7.75;2.17;;;3.50;99.90;;;;;;12331850;28;20683;-83
2021/01/13 16:34:07;;;;;;;7.40;3.22;;;3.50;99.90;;;;;;12349317;28;20115;-83
2021/01/13 16:40:11;;;;;;;9.50;2.40;;;3.50;99.90;;;;;;12362942;28;20402;-84
2021/01/13 16:46:13;;;;;;;10.43;2.78;;;3.50;99.90;;;;;;12351972;28;20062;-83
2021/01/13 16:52:17;;;;;;;10.10;2.95;;;3.50;99.90;;;;;;12373769;28;21225;-83
2021/01/13 16:58:24;;;;;;;12.93;3.65;;;3.50;99.90;;;;;;12351731;28;20424;-83
2021/01/13 17:04:25;;;;;;;15.27;3.63;;;3.50;99.90;;;;;;12329893;28;20173;-84
2021/01/13 17:10:29;;;;;;;10.10;2.70;;;3.50;99.90;;;;;;12362244;28;20160;-84
2021/01/13 17:16:34;;;;;;;12.15;3.08;;;3.50;99.90;;;;;;12365217;28;20652;-82
2021/01/13 17:22:36;;;;;;;9.98;1.95;;;3.50;99.90;;;;;;12364204;28;20383;-84
2021/01/13 17:28:39;;;;;;;12.50;2.00;;;3.50;99.90;;;;;;12370519;28;20053;-84
2021/01/13 17:34:40;;;;;;;9.35;2.00;;;3.60;99.90;;;;;;12363593;28;20061;-85
2021/01/13 17:40:42;;;;;;;13.18;1.80;;;3.60;99.90;;;;;;12367695;28;20072;-84
2021/01/13 17:46:45;;;;;;;6.88;1.73;;;3.60;99.90;;;;;;12358430;28;20073;-83
2021/01/13 17:52:48;;;;;;;13.23;1.98;;;3.50;99.90;;;;;;12362916;28;20331;-83
2021/01/13 17:58:50;;;;;;;14.05;2.08;;;3.40;99.90;;;;;;12362503;28;20141;-81
2021/01/13 18:05:07;;;;;;;13.90;2.20;;;3.20;99.90;;;;;;12355045;28;20454;-83
2021/01/13 18:11:09;;;;;;;9.35;1.40;;;3.10;99.90;;;;;;12376882;28;20145;-84
2021/01/13 18:17:14;;;;;;;15.05;3.00;;;3.10;99.90;;;;;;12376223;28;20128;-82
2021/01/13 18:23:16;;;;;;;;;;;3.00;99.90;;;;;;12378289;28;20510;-84
2021/01/13 18:29:17;;;;;;;7.78;1.83;;;3.00;99.90;;;;;;12377217;28;19971;-83
2021/01/13 18:35:21;;;;;;;11.85;2.65;;;3.00;99.90;;;;;;12379953;28;20581;-82
2021/01/13 18:41:23;;;;;;;19.63;2.75;;;3.00;99.90;;;;;;12371328;28;20047;-82
2021/01/13 18:47:24;;;;;;;12.73;1.95;;;3.00;99.90;;;;;;12374797;28;20126;-82
2021/01/13 18:53:25;;;;;;;9.90;1.65;;;3.00;99.90;;;;;;12390127;28;20556;-82
2021/01/13 18:59:27;;;;;;;7.88;2.58;;;3.00;99.90;;;;;;12393301;28;20121;-82
2021/01/13 19:05:28;;;;;;;10.95;1.83;;;3.00;99.90;;;;;;12372733;28;20125;-83
2021/01/13 19:11:36;;;;;;;12.05;1.73;;;2.90;99.90;;;;;;12371357;28;20129;-84
2021/01/13 19:17:38;;;;;;;11.32;1.83;;;2.90;99.90;;;;;;12373327;28;20066;-82
2021/01/13 19:23:40;;;;;;;15.25;1.90;;;3.00;99.90;;;;;;12374989;28;20468;-83
2021/01/13 19:29:41;;;;;;;12.60;1.90;;;3.00;99.90;;;;;;12376440;28;20397;-83
2021/01/13 19:35:42;;;;;;;13.73;2.00;;;3.00;99.90;;;;;;12366887;28;20663;-83
2021/01/13 19:41:44;;;;;;;13.38;1.70;;;3.00;99.90;;;;;;12365029;28;20082;-84
2021/01/13 19:47:47;;;;;;;13.27;2.30;;;3.00;99.90;;;;;;12343585;28;20058;-83
2021/01/13 19:53:49;;;;;;;8.57;1.80;;;2.90;99.90;;;;;;12387632;28;20049;-84
2021/01/13 19:59:51;;;;;;;10.52;2.65;;;2.80;99.90;;;;;;12380220;28;20232;-82
2021/01/13 20:05:52;;;;;;;9.65;1.73;;;2.70;99.90;;;;;;12385216;28;20110;-84
2021/01/13 20:11:53;;;;;;;5.95;1.35;;;2.60;99.90;;;;;;12369919;28;20049;-83
2021/01/13 20:17:55;;;;;;;8.20;1.10;;;2.30;99.90;;;;;;12370198;28;20081;-82
2021/01/13 20:23:56;;;;;;;5.40;1.30;;;2.20;99.90;;;;;;12369938;28;20155;-83
2021/01/13 20:29:58;;;;;;;4.65;1.15;;;2.20;99.90;;;;;;12375042;28;20085;-84
2021/01/13 20:35:59;;;;;;;5.07;1.48;;;2.10;99.90;;;;;;12368210;28;20045;-83
2021/01/13 20:42:00;;;;;;;5.97;1.20;;;2.10;99.90;;;;;;12370220;28;20140;-82
2021/01/13 20:48:02;;;;;;;9.15;1.15;;;2.20;99.90;;;;;;12374390;28;20081;-82
2021/01/13 20:54:04;;;;;;;8.85;1.25;;;2.20;99.90;;;;;;12373928;28;20054;-82
2021/01/13 21:00:08;;;;;;;11.50;1.17;;;2.20;99.90;;;;;;12360005;28;20084;-82
2021/01/13 21:06:09;;;;;;;8.70;1.30;;;2.10;99.90;;;;;;12357760;28;20455;-84
2021/01/13 21:12:11;;;;;;;11.10;1.42;;;2.00;99.90;;;;;;12370693;28;20180;-81
2021/01/13 21:18:12;;;;;;;6.45;1.15;;;1.90;99.90;;;;;;12371277;28;20474;-84
2021/01/13 21:24:14;;;;;;;6.57;1.10;;;1.80;99.90;;;;;;12368494;28;20138;-83
2021/01/13 21:30:15;;;;;;;9.57;1.30;;;1.80;99.90;;;;;;12386114;28;20057;-82
2021/01/13 21:36:29;;;;;;;9.60;1.17;;;1.70;99.90;;;;;;12386175;28;20057;-83
2021/01/13 21:42:30;;;;;;;7.80;1.20;;;1.60;99.90;;;;;;12363033;28;20057;-82
2021/01/13 21:48:31;;;;;;;7.15;1.00;;;1.50;99.90;;;;;;12363959;28;20391;-82
2021/01/13 21:54:34;;;;;;;5.35;1.30;;;1.50;99.90;;;;;;12362777;28;20077;-83
2021/01/13 22:00:36;;;;;;;8.05;1.35;;;1.50;99.90;;;;;;12379602;28;20070;-82
2021/01/13 22:06:38;;;;;;;4.07;1.25;;;1.40;99.90;;;;;;12364614;28;20121;-82
2021/01/13 22:12:40;;;;;;;8.13;1.10;;;1.30;99.90;;;;;;12370491;28;20045;-81
2021/01/13 22:18:42;;;;;;;7.20;1.10;;;1.30;99.90;;;;;;12368205;28;20103;-82
2021/01/13 22:24:45;;;;;;;7.47;1.27;;;1.20;99.90;;;;;;12373809;28;20037;-81
2021/01/13 22:30:46;;;;;;;7.10;1.10;;;1.20;99.90;;;;;;12372262;28;20049;-81
2021/01/13 22:36:47;;;;;;;8.52;2.15;;;1.10;99.90;;;;;;12375877;28;20133;-82
2021/01/13 22:42:49;;;;;;;6.45;1.10;;;1.20;99.90;;;;;;12388295;28;20157;-81
2021/01/13 22:48:50;;;;;;;5.32;1.08;;;1.30;99.90;;;;;;12386144;28;20085;-81
2021/01/13 22:54:52;;;;;;;4.93;1.00;;;1.30;99.90;;;;;;12366891;28;20144;-80
2021/01/13 23:00:53;;;;;;;7.25;1.10;;;1.30;99.90;;;;;;12389435;28;20176;-81
2021/01/13 23:06:55;;;;;;;6.93;1.17;;;1.40;99.90;;;;;;12373340;28;20089;-80
2021/01/13 23:12:56;;;;;;;6.68;1.30;;;1.40;99.90;;;;;;12374359;28;20073;-80
2021/01/13 23:18:57;;;;;;;7.65;1.52;;;1.50;99.90;;;;;;12374343;28;20050;-81
2021/01/13 23:24:59;;;;;;;9.00;1.13;;;1.40;99.90;;;;;;12370721;28;20054;-80
2021/01/13 23:31:00;;;;;;;8.38;1.20;;;1.40;99.90;;;;;;12366749;28;20073;-80
2021/01/13 23:37:01;;;;;;;6.53;0.80;;;1.40;99.90;;;;;;12394825;28;20561;-81
2021/01/13 23:43:03;;;;;;;4.90;0.93;;;1.20;99.90;;;;;;12370778;28;20054;-80
2021/01/13 23:49:04;;;;;;;5.90;1.23;;;1.30;99.90;;;;;;12351290;28;21166;-81
2021/01/13 23:55:16;;;;;;;5.40;0.98;;;1.20;99.90;;;;;;12364893;28;20604;-80
